createdAt,value
2023-04-10T00:01:47.661Z,41.93
2023-04-10T00:04:16.744Z,43.17
2023-04-10T00:06:45.146Z,45.43
2023-04-10T00:09:13.411Z,45.03
2023-04-10T00:11:41.783Z,48.53
2023-04-10T00:14:10.243Z,50.40
2023-04-10T00:16:38.543Z,52.43
2023-04-10T00:19:08.581Z,48.17
2023-04-10T00:21:36.808Z,44.37
2023-04-10T00:24:05.339Z,42.73
2023-04-10T00:26:33.665Z,39.30
2023-04-10T00:29:02.045Z,38.67
2023-04-10T00:31:31.598Z,35.57
2023-04-10T00:33:59.990Z,34.67
2023-04-10T00:36:29.678Z,32.00
2023-04-10T00:38:58.147Z,32.77
2023-04-10T00:41:26.615Z,31.97
2023-04-10T00:43:57.740Z,31.93
2023-04-10T00:46:27.518Z,31.37
2023-04-10T00:48:57.453Z,30.60
2023-04-10T00:51:27.069Z,30.20
2023-04-10T00:53:57.540Z,29.63
2023-04-10T00:56:26.371Z,30.87
2023-04-10T00:58:54.636Z,30.00
2023-04-10T01:01:22.965Z,30.05
2023-04-10T01:03:52.124Z,31.15
2023-04-10T01:06:31.591Z,31.67
2023-04-10T01:09:16.571Z,30.70
2023-04-10T01:11:54.581Z,30.30
2023-04-10T01:14:33.914Z,30.03
2023-04-10T01:17:09.076Z,32.27
2023-04-10T01:20:02.852Z,36.07
2023-04-10T01:23:05.468Z,35.27
2023-04-10T01:25:47.868Z,37.33
2023-04-10T01:28:52.562Z,42.27
2023-04-10T01:31:28.175Z,44.10
2023-04-10T01:34:05.247Z,43.87
2023-04-10T01:36:45.164Z,41.00
2023-04-10T01:39:15.429Z,42.70
2023-04-10T01:41:46.409Z,42.13
2023-04-10T01:44:19.858Z,42.47
2023-04-10T01:46:50.940Z,41.40
2023-04-10T01:49:20.539Z,37.23
2023-04-10T01:51:51.603Z,37.83
2023-04-10T01:54:20.457Z,36.47
2023-04-10T01:56:48.901Z,33.87
2023-04-10T01:59:20.419Z,32.30
2023-04-10T02:01:48.851Z,33.23
2023-04-10T02:04:18.447Z,33.40
2023-04-10T02:07:03.388Z,31.93
2023-04-10T02:09:45.201Z,30.83
2023-04-10T02:12:21.417Z,30.50
2023-04-10T02:14:55.588Z,30.77
2023-04-10T02:17:31.075Z,30.73
2023-04-10T02:20:00.918Z,29.67
2023-04-10T02:22:29.980Z,28.17
2023-04-10T02:25:00.867Z,29.47
2023-04-10T02:27:31.628Z,29.20
2023-04-10T02:30:03.225Z,28.00
2023-04-10T02:32:33.936Z,28.27
2023-04-10T02:35:03.031Z,27.77
2023-04-10T02:37:32.793Z,28.27
2023-04-10T02:40:02.971Z,27.53
2023-04-10T02:42:39.785Z,29.07
2023-04-10T02:45:11.109Z,29.73
2023-04-10T02:47:43.061Z,28.43
2023-04-10T02:50:12.276Z,28.80
2023-04-10T02:52:44.245Z,27.57
2023-04-10T02:55:12.814Z,28.23
2023-04-10T02:57:42.728Z,28.50
2023-04-10T03:00:14.473Z,28.63
2023-04-10T03:03:21.547Z,29.40
2023-04-10T03:05:54.960Z,28.83
2023-04-10T03:08:30.196Z,28.50
2023-04-10T03:10:58.581Z,28.40
2023-04-10T03:13:27.009Z,27.80
2023-04-10T03:15:56.749Z,29.73
2023-04-10T03:18:25.339Z,29.40
2023-04-10T03:20:55.368Z,28.77
2023-04-10T03:23:23.591Z,28.67
2023-04-10T03:25:53.733Z,28.07
2023-04-10T03:28:24.043Z,28.17
2023-04-10T03:30:53.182Z,27.50
2023-04-10T03:33:22.867Z,28.50
2023-04-10T03:35:51.455Z,29.73
2023-04-10T03:38:19.707Z,27.60
2023-04-10T03:40:48.088Z,28.43
2023-04-10T03:43:17.327Z,29.03
2023-04-10T03:45:47.149Z,27.47
2023-04-10T03:48:16.367Z,30.13
2023-04-10T03:50:49.208Z,29.60
2023-04-10T03:53:17.609Z,28.20
2023-04-10T03:55:46.810Z,28.63
2023-04-10T03:58:15.292Z,29.97
2023-04-10T04:00:43.710Z,28.37
2023-04-10T04:03:25.983Z,29.73
2023-04-10T04:06:08.739Z,27.37
2023-04-10T04:08:44.105Z,28.37
2023-04-10T04:11:41.184Z,29.47
2023-04-10T04:14:29.652Z,29.87
2023-04-10T04:17:12.867Z,30.87
2023-04-10T04:19:56.769Z,29.10
2023-04-10T04:22:49.162Z,28.60
2023-04-10T04:25:35.796Z,27.93
2023-04-10T04:28:17.452Z,29.27
2023-04-10T04:31:04.626Z,28.67
2023-04-10T04:34:04.866Z,29.10
2023-04-10T04:36:51.805Z,29.07
2023-04-10T04:39:40.638Z,29.17
2023-04-10T04:42:21.053Z,28.43
2023-04-10T04:45:10.328Z,28.30
2023-04-10T04:47:57.211Z,28.00
2023-04-10T04:50:34.730Z,29.17
2023-04-10T04:53:16.126Z,29.13
2023-04-10T04:56:09.632Z,29.33
2023-04-10T04:59:07.458Z,29.10
2023-04-10T05:01:56.666Z,28.93
2023-04-10T05:04:54.241Z,29.07
2023-04-10T05:07:32.993Z,28.50
2023-04-10T05:10:16.441Z,29.87
2023-04-10T05:13:10.361Z,29.07
2023-04-10T05:15:55.849Z,30.23
2023-04-10T05:18:43.043Z,27.77
2023-04-10T05:21:24.084Z,28.10
2023-04-10T05:24:11.188Z,28.90
2023-04-10T05:26:45.936Z,27.07
2023-04-10T05:29:28.103Z,30.10
2023-04-10T05:32:15.310Z,28.90
2023-04-10T05:35:13.113Z,28.63
2023-04-10T05:37:49.122Z,28.40
2023-04-10T05:40:30.813Z,29.47
2023-04-10T05:43:17.908Z,27.23
2023-04-10T05:46:19.785Z,29.57
2023-04-10T05:49:14.072Z,28.07
2023-04-10T05:52:02.603Z,27.77
2023-04-10T05:54:40.147Z,27.87
2023-04-10T05:57:08.396Z,27.00
2023-04-10T05:59:55.425Z,28.17
2023-04-10T06:02:48.028Z,28.07
2023-04-10T06:05:24.545Z,26.77
2023-04-10T06:07:59.624Z,28.80
2023-04-10T06:10:30.717Z,27.53
2023-04-10T06:12:59.203Z,26.20
2023-04-10T06:15:27.985Z,27.33
2023-04-10T06:17:57.791Z,27.10
2023-04-10T06:20:26.248Z,27.83
2023-04-10T06:22:55.192Z,25.83
2023-04-10T06:25:23.531Z,27.73
2023-04-10T06:27:52.170Z,27.17
2023-04-10T06:30:20.641Z,28.10
2023-04-10T06:32:49.046Z,27.33
2023-04-10T06:35:19.340Z,26.60
2023-04-10T06:37:47.624Z,27.43
2023-04-10T06:40:17.066Z,27.20
2023-04-10T06:42:45.533Z,27.23
2023-04-10T06:45:24.963Z,26.97
2023-04-10T06:47:53.748Z,26.63
2023-04-10T06:50:23.556Z,26.83
2023-04-10T06:52:53.411Z,27.40
2023-04-10T06:55:21.675Z,27.00
2023-04-10T06:57:49.899Z,26.93
2023-04-10T07:00:20.703Z,26.57
2023-04-10T07:02:52.209Z,25.17
2023-04-10T07:05:20.949Z,25.07
2023-04-10T07:07:51.679Z,25.50
2023-04-10T07:10:19.991Z,25.33
2023-04-10T07:12:48.210Z,26.83
2023-04-10T07:15:16.964Z,25.42
2023-04-10T07:17:45.334Z,25.92
2023-04-10T07:20:13.981Z,25.40
2023-04-10T07:22:42.359Z,24.80
2023-04-10T07:25:12.134Z,27.05
2023-04-10T07:27:40.351Z,24.42
2023-04-10T07:30:12.297Z,26.08
2023-04-10T07:32:42.389Z,23.88
2023-04-10T07:35:11.281Z,25.15
2023-04-10T07:37:39.990Z,25.00
2023-04-10T07:40:12.053Z,23.33
2023-04-10T07:42:40.523Z,23.38
2023-04-10T07:45:10.972Z,23.38
2023-04-10T07:47:39.366Z,23.83
2023-04-10T07:50:09.767Z,22.77
2023-04-10T07:52:38.109Z,24.17
2023-04-10T07:55:07.477Z,23.52
2023-04-10T07:57:37.316Z,23.35
2023-04-10T08:00:07.693Z,23.17
2023-04-10T08:02:41.969Z,23.25
2023-04-10T08:05:10.935Z,22.38
2023-04-10T08:07:39.241Z,21.90
2023-04-10T08:10:08.743Z,22.23
2023-04-10T08:12:38.433Z,22.80
2023-04-10T08:15:08.283Z,22.25
2023-04-10T08:17:36.555Z,22.00
2023-04-10T08:20:06.465Z,22.33
2023-04-10T08:22:34.715Z,20.88
2023-04-10T08:25:03.128Z,22.50
2023-04-10T08:27:31.578Z,21.30
2023-04-10T08:30:01.177Z,20.63
2023-04-10T08:32:30.535Z,20.88
2023-04-10T08:34:58.959Z,21.83
2023-04-10T08:37:27.526Z,20.77
2023-04-10T08:39:56.085Z,21.63
2023-04-10T08:42:25.188Z,20.88
2023-04-10T08:44:54.429Z,21.00
2023-04-10T08:47:28.934Z,21.17
2023-04-10T08:49:59.131Z,21.70
2023-04-10T08:52:31.124Z,20.15
2023-04-10T08:55:06.958Z,19.20
2023-04-10T08:57:38.835Z,18.50
2023-04-10T09:00:22.065Z,20.35
2023-04-10T09:02:57.915Z,17.42
2023-04-10T09:05:28.955Z,19.23
2023-04-10T09:07:57.220Z,18.77
2023-04-10T09:10:25.549Z,18.73
2023-04-10T09:12:54.284Z,18.10
2023-04-10T09:15:22.643Z,18.30
2023-04-10T09:18:04.038Z,16.33
2023-04-10T09:20:33.964Z,18.65
2023-04-10T09:23:02.380Z,16.55
2023-04-10T09:25:36.967Z,17.23
2023-04-10T09:28:07.251Z,16.15
2023-04-10T09:30:39.149Z,15.50
2023-04-10T09:33:27.451Z,15.00
2023-04-10T09:35:59.875Z,14.63
2023-04-10T09:38:28.211Z,14.20
2023-04-10T09:41:08.798Z,13.68
2023-04-10T09:43:38.905Z,14.13
2023-04-10T09:46:07.974Z,13.07
2023-04-10T09:48:37.867Z,13.95
2023-04-10T09:51:06.630Z,14.60
2023-04-10T09:53:50.242Z,13.95
2023-04-10T09:56:19.769Z,14.13
2023-04-10T09:58:48.675Z,14.65
2023-04-10T10:01:18.922Z,13.57
2023-04-10T10:03:49.041Z,12.27
2023-04-10T10:06:17.761Z,11.80
2023-04-10T10:08:46.810Z,12.00
2023-04-10T10:11:19.973Z,11.80
2023-04-10T10:13:53.900Z,10.40
2023-04-10T10:16:30.360Z,11.05
2023-04-10T10:19:10.492Z,11.93
2023-04-10T10:21:40.101Z,10.30
2023-04-10T10:24:10.800Z,10.38
2023-04-10T10:26:41.476Z,10.98
2023-04-10T10:29:13.288Z,10.70
2023-04-10T10:31:42.643Z,11.07
2023-04-10T10:34:12.374Z,10.60
2023-04-10T10:36:42.051Z,9.68
2023-04-10T10:39:29.961Z,10.90
2023-04-10T10:42:13.616Z,10.38
2023-04-10T10:44:50.562Z,9.95
2023-04-10T10:47:23.423Z,9.75
2023-04-10T10:50:01.451Z,9.48
2023-04-10T10:52:49.073Z,9.48
2023-04-10T10:55:36.569Z,9.55
2023-04-10T10:58:07.445Z,9.50
2023-04-10T11:01:10.604Z,9.07
2023-04-10T11:03:39.746Z,8.93
2023-04-10T11:06:12.780Z,8.68
2023-04-10T11:08:47.009Z,7.93
2023-04-10T11:11:18.298Z,7.97
2023-04-10T11:14:17.904Z,7.30
2023-04-10T11:16:48.640Z,7.15
2023-04-10T11:19:22.611Z,7.95
2023-04-10T11:22:10.545Z,8.18
2023-04-10T11:24:54.649Z,8.65
2023-04-10T11:27:49.845Z,8.80
2023-04-10T11:30:36.324Z,8.30
2023-04-10T11:33:06.619Z,7.90
2023-04-10T11:35:35.448Z,7.10
2023-04-10T11:38:17.347Z,7.38
2023-04-10T11:41:05.277Z,7.25
2023-04-10T11:43:35.161Z,7.85
2023-04-10T11:46:07.308Z,7.97
2023-04-10T11:48:36.982Z,6.75
2023-04-10T11:51:10.817Z,7.63
2023-04-10T11:53:40.998Z,7.38
2023-04-10T11:56:21.798Z,7.10
2023-04-10T11:58:54.738Z,5.88
2023-04-10T12:01:24.293Z,6.20
2023-04-10T12:03:53.039Z,7.00
2023-04-10T12:06:22.169Z,6.70
2023-04-10T12:08:51.870Z,6.35
2023-04-10T12:11:22.440Z,6.70
2023-04-10T12:13:54.406Z,6.30
2023-04-10T12:16:23.474Z,6.53
2023-04-10T12:18:52.563Z,7.15
2023-04-10T12:21:21.785Z,7.18
2023-04-10T12:23:52.067Z,7.05
2023-04-10T12:26:21.992Z,6.95
2023-04-10T12:28:55.578Z,6.20
2023-04-10T12:31:31.567Z,6.55
2023-04-10T12:34:01.147Z,6.95
2023-04-10T12:36:34.726Z,6.28
2023-04-10T12:39:06.118Z,6.03
2023-04-10T12:41:36.670Z,6.50
2023-04-10T12:44:11.220Z,5.75
2023-04-10T12:46:40.586Z,6.20
2023-04-10T12:49:14.757Z,6.30
2023-04-10T12:51:47.591Z,6.07
2023-04-10T12:54:34.942Z,5.57
2023-04-10T12:57:04.707Z,5.40
2023-04-10T12:59:33.762Z,4.88
2023-04-10T13:02:02.204Z,5.53
2023-04-10T13:04:32.747Z,5.10
2023-04-10T13:07:01.185Z,5.07
2023-04-10T13:09:29.377Z,5.35
2023-04-10T13:11:59.085Z,4.90
2023-04-10T13:14:27.466Z,5.72
2023-04-10T13:16:55.705Z,4.93
2023-04-10T13:19:23.890Z,5.43
2023-04-10T13:21:52.157Z,5.40
2023-04-10T13:24:20.493Z,5.07
2023-04-10T13:26:48.810Z,5.40
2023-04-10T13:29:18.458Z,5.05
2023-04-10T13:31:46.765Z,5.40
2023-04-10T13:34:15.038Z,5.30
2023-04-10T13:36:43.367Z,5.07
2023-04-10T13:39:11.763Z,5.13
2023-04-10T13:41:40.142Z,4.97
2023-04-10T13:44:08.368Z,4.65
2023-04-10T13:46:38.037Z,5.00
2023-04-10T13:49:06.245Z,5.53
2023-04-10T13:51:34.487Z,5.40
2023-04-10T13:54:04.823Z,5.53
2023-04-10T13:56:33.106Z,5.35
2023-04-10T13:59:01.369Z,5.10
2023-04-10T14:01:29.604Z,4.97
2023-04-10T14:03:59.230Z,5.45
2023-04-10T14:06:27.799Z,5.22
2023-04-10T14:08:56.346Z,5.55
2023-04-10T14:11:24.734Z,5.40
2023-04-10T14:13:52.978Z,5.07
2023-04-10T14:16:21.257Z,6.07
2023-04-10T14:18:49.523Z,5.53
2023-04-10T14:21:20.702Z,5.18
2023-04-10T14:23:49.154Z,6.40
2023-04-10T14:26:17.389Z,5.88
2023-04-10T14:28:45.646Z,6.28
2023-04-10T14:31:13.815Z,6.53
2023-04-10T14:33:42.059Z,6.22
2023-04-10T14:36:11.002Z,6.35
2023-04-10T14:38:40.630Z,6.55
2023-04-10T14:41:09.000Z,6.47
2023-04-10T14:43:38.127Z,6.03
2023-04-10T14:46:07.206Z,6.78
2023-04-10T14:48:35.798Z,6.35
2023-04-10T14:51:05.401Z,7.28
2023-04-10T14:53:33.620Z,6.53
2023-04-10T14:56:12.442Z,7.35
2023-04-10T14:58:41.192Z,6.65
2023-04-10T15:01:11.813Z,6.30
2023-04-10T15:03:41.167Z,7.65
2023-04-10T15:06:09.939Z,6.70
2023-04-10T15:08:38.670Z,6.70
2023-04-10T15:11:09.334Z,6.70
2023-04-10T15:13:39.412Z,7.15
2023-04-10T15:16:09.009Z,7.13
2023-04-10T15:18:37.573Z,6.82
2023-04-10T15:21:07.028Z,7.15
2023-04-10T15:23:35.430Z,7.90
2023-04-10T15:26:03.738Z,7.10
2023-04-10T15:28:33.294Z,7.07
2023-04-10T15:31:01.512Z,6.88
2023-04-10T15:33:29.724Z,6.55
2023-04-10T15:35:58.043Z,6.45
2023-04-10T15:38:28.630Z,6.53
2023-04-10T15:40:57.347Z,6.13
2023-04-10T15:43:25.633Z,5.80
2023-04-10T15:45:55.301Z,6.03
2023-04-10T15:48:24.656Z,5.60
2023-04-10T15:50:53.026Z,5.40
2023-04-10T15:53:21.279Z,5.40
2023-04-10T15:55:49.466Z,5.07
2023-04-10T15:58:17.695Z,5.68
2023-04-10T16:00:45.933Z,5.45
2023-04-10T16:03:15.644Z,5.78
2023-04-10T16:05:44.025Z,5.50
2023-04-10T16:08:12.268Z,5.43
2023-04-10T16:10:40.486Z,5.22
2023-04-10T16:13:08.649Z,5.30
2023-04-10T16:15:38.287Z,5.25
2023-04-10T16:18:08.652Z,5.82
2023-04-10T16:20:38.326Z,5.20
2023-04-10T16:23:06.617Z,5.10
2023-04-10T16:25:34.878Z,5.40
2023-04-10T16:28:06.328Z,5.70
2023-04-10T16:30:34.765Z,5.18
2023-04-10T16:33:03.172Z,5.45
2023-04-10T16:35:31.525Z,5.93
2023-04-10T16:38:01.282Z,6.63
2023-04-10T16:40:32.485Z,7.00
2023-04-10T16:43:01.705Z,7.00
2023-04-10T16:45:30.063Z,7.22
2023-04-10T16:47:58.279Z,5.95
2023-04-10T16:50:26.734Z,6.47
2023-04-10T16:52:55.080Z,5.93
2023-04-10T16:55:24.642Z,5.85
2023-04-10T16:57:52.869Z,6.45
2023-04-10T17:00:21.424Z,6.00
2023-04-10T17:02:49.896Z,6.43
2023-04-10T17:05:18.245Z,6.85
2023-04-10T17:07:46.494Z,7.32
2023-04-10T17:10:14.714Z,6.20
2023-04-10T17:12:45.147Z,6.60
2023-04-10T17:15:13.629Z,6.68
2023-04-10T17:17:41.911Z,6.45
2023-04-10T17:20:11.436Z,6.32
2023-04-10T17:22:40.664Z,6.28
2023-04-10T17:25:09.839Z,7.30
2023-04-10T17:27:40.294Z,6.50
2023-04-10T17:30:14.654Z,7.00
2023-04-10T17:32:43.289Z,7.03
2023-04-10T17:35:11.699Z,6.75
2023-04-10T17:37:39.974Z,7.05
2023-04-10T17:40:10.305Z,7.00
2023-04-10T17:42:38.678Z,6.38
2023-04-10T17:45:08.561Z,6.97
2023-04-10T17:47:38.239Z,7.00
2023-04-10T17:50:08.363Z,6.40
2023-04-10T17:52:36.733Z,6.50
2023-04-10T17:55:05.702Z,5.85
2023-04-10T17:57:33.977Z,6.13
2023-04-10T18:00:02.152Z,6.47
2023-04-10T18:02:33.395Z,5.82
2023-04-10T18:05:03.547Z,6.50
2023-04-10T18:07:31.917Z,6.20
2023-04-10T18:10:00.231Z,6.13
2023-04-10T18:12:28.534Z,6.80
2023-04-10T18:14:56.777Z,7.03
2023-04-10T18:17:25.317Z,7.22
2023-04-10T18:19:55.626Z,7.13
2023-04-10T18:22:25.368Z,7.22
2023-04-10T18:24:54.888Z,7.53
2023-04-10T18:27:23.169Z,8.25
2023-04-10T18:29:51.406Z,8.48
2023-04-10T18:32:19.627Z,8.75
2023-04-10T18:34:47.931Z,8.93
2023-04-10T18:37:16.184Z,7.88
2023-04-10T18:39:46.010Z,8.85
2023-04-10T18:42:14.267Z,8.95
2023-04-10T18:44:42.529Z,8.60
2023-04-10T18:47:11.610Z,8.63
2023-04-10T18:49:39.999Z,8.82
2023-04-10T18:52:08.397Z,9.10
2023-04-10T18:54:37.807Z,9.30
2023-04-10T18:57:07.559Z,9.48
2023-04-10T18:59:38.385Z,9.95
2023-04-10T19:02:08.814Z,9.88
2023-04-10T19:04:37.281Z,9.60
2023-04-10T19:07:05.885Z,9.13
2023-04-10T19:09:34.404Z,8.55
2023-04-10T19:12:02.654Z,8.77
2023-04-10T19:14:32.380Z,8.98
2023-04-10T19:17:05.805Z,9.07
2023-04-10T19:19:34.620Z,9.45
2023-04-10T19:22:02.950Z,9.43
2023-04-10T19:24:34.076Z,8.85
2023-04-10T19:27:02.492Z,8.70
2023-04-10T19:29:32.185Z,9.15
2023-04-10T19:32:00.458Z,8.88
2023-04-10T19:34:28.746Z,9.23
2023-04-10T19:36:57.059Z,9.05
2023-04-10T19:39:25.506Z,9.07
2023-04-10T19:41:53.726Z,8.90
2023-04-10T19:44:21.974Z,9.52
2023-04-10T19:46:51.689Z,8.88
2023-04-10T19:49:20.215Z,9.00
2023-04-10T19:51:48.697Z,8.77
2023-04-10T19:54:16.940Z,8.98
2023-04-10T19:56:45.233Z,9.05
2023-04-10T19:59:13.511Z,8.82
2023-04-10T20:01:41.824Z,8.40
2023-04-10T20:04:11.585Z,9.23
2023-04-10T20:06:41.610Z,8.48
2023-04-10T20:09:09.924Z,8.70
2023-04-10T20:11:38.274Z,9.02
2023-04-10T20:14:06.544Z,8.40
2023-04-10T20:16:35.129Z,8.52
2023-04-10T20:19:04.498Z,8.55
2023-04-10T20:21:34.743Z,9.20
2023-04-10T20:24:02.992Z,8.48
2023-04-10T20:26:31.363Z,8.07
2023-04-10T20:29:00.389Z,8.73
2023-04-10T20:31:28.696Z,8.65
2023-04-10T20:33:57.017Z,7.97
2023-04-10T20:36:26.322Z,7.47
2023-04-10T20:38:56.231Z,8.35
2023-04-10T20:41:26.253Z,8.10
2023-04-10T20:43:55.647Z,7.72
2023-04-10T20:46:24.556Z,7.95
2023-04-10T20:48:54.884Z,7.65
2023-04-10T20:51:23.435Z,7.63
2023-04-10T20:53:51.704Z,8.05
2023-04-10T20:56:24.954Z,7.80
2023-04-10T20:58:58.323Z,7.93
2023-04-10T21:01:26.862Z,7.95
2023-04-10T21:03:56.034Z,7.05
2023-04-10T21:06:25.049Z,7.57
2023-04-10T21:08:53.789Z,7.93
2023-04-10T21:11:23.680Z,7.80
2023-04-10T21:13:51.957Z,7.43
2023-04-10T21:16:20.225Z,7.70
2023-04-10T21:18:48.605Z,8.45
2023-04-10T21:21:16.973Z,7.68
2023-04-10T21:23:45.257Z,7.10
2023-04-10T21:26:13.536Z,7.55
2023-04-10T21:28:43.803Z,6.68
2023-04-10T21:31:12.019Z,5.38
2023-04-10T21:33:40.312Z,5.30
2023-04-10T21:36:09.436Z,6.03
2023-04-10T21:38:37.747Z,4.95
2023-04-10T21:41:06.395Z,4.95
2023-04-10T21:43:35.268Z,4.80
2023-04-10T21:46:05.765Z,4.50
2023-04-10T21:48:34.014Z,4.30
2023-04-10T21:51:03.696Z,4.97
2023-04-10T21:53:32.093Z,4.50
2023-04-10T21:56:00.371Z,4.85
2023-04-10T21:58:28.675Z,4.53
2023-04-10T22:00:56.967Z,4.30
2023-04-10T22:03:27.356Z,4.65
2023-04-10T22:05:55.894Z,4.55
2023-04-10T22:08:26.556Z,4.70
2023-04-10T22:10:55.268Z,4.93
2023-04-10T22:13:30.936Z,4.70
2023-04-10T22:16:02.211Z,5.00
2023-04-10T22:18:32.728Z,5.60
2023-04-10T22:21:00.963Z,4.78
2023-04-10T22:23:29.177Z,5.05
2023-04-10T22:25:57.554Z,5.32
2023-04-10T22:28:25.908Z,5.38
2023-04-10T22:30:54.298Z,5.63
2023-04-10T22:33:22.572Z,5.93
2023-04-10T22:35:53.489Z,5.80
2023-04-10T22:38:21.909Z,5.55
2023-04-10T22:40:50.094Z,6.30
2023-04-10T22:43:18.306Z,5.60
2023-04-10T22:45:46.579Z,5.38
2023-04-10T22:48:14.844Z,5.88
2023-04-10T22:50:43.141Z,5.70
2023-04-10T22:53:13.523Z,5.70
2023-04-10T22:55:42.087Z,5.80
2023-04-10T22:58:10.345Z,5.95
2023-04-10T23:00:38.673Z,5.63
2023-04-10T23:03:07.111Z,6.10
2023-04-10T23:05:35.491Z,5.75
2023-04-10T23:08:03.816Z,6.07
2023-04-10T23:10:33.495Z,6.55
2023-04-10T23:13:01.757Z,6.30
2023-04-10T23:15:30.046Z,6.35
2023-04-10T23:17:58.459Z,6.43
2023-04-10T23:20:26.696Z,6.18
2023-04-10T23:22:57.003Z,5.80
2023-04-10T23:25:25.558Z,5.68
2023-04-10T23:27:55.463Z,5.38
2023-04-10T23:30:23.841Z,5.53
2023-04-10T23:32:52.075Z,5.78
2023-04-10T23:35:20.420Z,5.47
2023-04-10T23:37:48.731Z,5.05
2023-04-10T23:40:17.402Z,5.25
2023-04-10T23:42:46.895Z,5.97
2023-04-10T23:45:16.777Z,5.95
2023-04-10T23:47:45.024Z,5.82
2023-04-10T23:50:13.261Z,5.95
2023-04-10T23:52:41.430Z,4.93
2023-04-10T23:55:10.274Z,5.22
2023-04-10T23:57:38.694Z,4.90
